Time;durP1;ratioP1;P1;durP2;ratioP2;P2;SDS_P1;SDS_P2;PMS_P1;PMS_P2;Temp;Humidity;BMP_temperature;BMP_pressure;BME280_temperature;BME280_humidity;BME280_pressure;Samples;Min_cycle;Max_cycle;Signal;HPM_P1;HPM_P2
2021/11/05 00:04:10;;;;;;;38.77;27.40;;;8.60;98.30;;;;;;5172240;23;20506;-81
2021/11/05 00:06:13;;;;;;;37.83;26.57;;;8.60;98.30;;;;;;5173170;22;20419;-81
2021/11/05 00:08:16;;;;;;;41.10;28.30;;;8.60;98.30;;;;;;5173188;23;20452;-81
2021/11/05 00:10:19;;;;;;;38.03;25.70;;;8.70;98.30;;;;;;5173118;22;20422;-81
2021/11/05 00:12:22;;;;;;;37.00;25.10;;;8.60;98.30;;;;;;5173018;22;20516;-81
2021/11/05 00:14:25;;;;;;;36.10;24.87;;;8.60;98.30;;;;;;5173235;22;20912;-81
2021/11/05 00:16:28;;;;;;;32.30;23.60;;;8.60;98.30;;;;;;5173503;22;20739;-82
2021/11/05 00:18:31;;;;;;;33.57;23.60;;;8.60;98.30;;;;;;5165048;22;20424;-81
2021/11/05 00:20:36;;;;;;;33.93;20.87;;;8.60;98.30;;;;;;5174209;22;20427;-82
2021/11/05 00:22:43;;;;;;;38.30;20.67;;;8.60;98.30;;;;;;5173787;22;20470;-81
2021/11/05 00:24:46;;;;;;;31.43;21.70;;;8.60;98.30;;;;;;5175135;22;20428;-81
2021/11/05 00:26:49;;;;;;;36.47;24.33;;;8.60;98.30;;;;;;5174812;22;20416;-81
2021/11/05 00:28:52;;;;;;;33.10;21.97;;;8.60;98.30;;;;;;5174589;23;20797;-81
2021/11/05 00:30:56;;;;;;;33.57;23.33;;;8.60;98.30;;;;;;5174020;22;20473;-82
2021/11/05 00:32:59;;;;;;;38.40;21.23;;;8.60;98.30;;;;;;5164931;22;20453;-82
2021/11/05 00:35:02;;;;;;;32.10;23.00;;;8.60;98.30;;;;;;5173578;22;20731;-82
2021/11/05 00:37:07;;;;;;;38.13;25.47;;;8.60;98.30;;;;;;5172549;22;20813;-82
2021/11/05 00:39:10;;;;;;;34.40;21.67;;;8.60;98.30;;;;;;5173678;22;20420;-82
2021/11/05 00:41:14;;;;;;;34.53;22.47;;;8.50;98.30;;;;;;5173173;22;20815;-82
2021/11/05 00:43:18;;;;;;;34.10;21.47;;;8.60;98.30;;;;;;5173311;22;20993;-82
2021/11/05 00:45:21;;;;;;;35.43;24.07;;;8.60;98.30;;;;;;5172868;22;20835;-82
2021/11/05 00:47:24;;;;;;;33.30;22.23;;;8.60;98.30;;;;;;5172575;22;20736;-81
2021/11/05 00:49:27;;;;;;;32.23;18.60;;;8.60;98.30;;;;;;5173250;22;20448;-82
2021/11/05 00:51:30;;;;;;;33.70;20.90;;;8.50;98.30;;;;;;5173068;22;20502;-82
2021/11/05 00:53:35;;;;;;;30.17;18.23;;;8.50;98.30;;;;;;5165328;23;20463;-82
2021/11/05 00:55:38;;;;;;;30.93;19.13;;;8.50;98.30;;;;;;5167794;22;20428;-81
2021/11/05 00:57:41;;;;;;;29.43;21.50;;;8.50;98.30;;;;;;5173860;23;20431;-81
2021/11/05 00:59:44;;;;;;;33.07;19.00;;;8.50;98.30;;;;;;5174091;22;20450;-81
2021/11/05 01:01:47;;;;;;;33.30;20.97;;;8.50;98.30;;;;;;5165339;22;20426;-81
2021/11/05 01:03:50;;;;;;;35.13;22.07;;;8.50;98.30;;;;;;5165495;22;20950;-81
2021/11/05 01:05:53;;;;;;;39.13;22.97;;;8.50;98.30;;;;;;5164829;22;20436;-82
2021/11/05 01:07:56;;;;;;;30.13;20.17;;;8.50;98.30;;;;;;5172899;23;20766;-82
2021/11/05 01:10:01;;;;;;;28.33;17.77;;;8.50;98.30;;;;;;5172952;22;20510;-82
2021/11/05 01:12:04;;;;;;;32.37;21.70;;;8.50;98.30;;;;;;5172644;22;20534;-82
2021/11/05 01:14:07;;;;;;;36.60;21.47;;;8.50;98.30;;;;;;5173974;23;20485;-82
2021/11/05 01:16:11;;;;;;;32.50;20.80;;;8.40;98.30;;;;;;5165691;22;20432;-82
2021/11/05 01:18:15;;;;;;;30.40;17.43;;;8.40;98.30;;;;;;5173481;22;20415;-81
2021/11/05 01:20:19;;;;;;;30.10;18.57;;;8.40;98.30;;;;;;5174309;22;20426;-80
2021/11/05 01:22:22;;;;;;;29.33;20.70;;;8.40;98.30;;;;;;5174991;22;20441;-80
2021/11/05 01:24:25;;;;;;;33.40;21.10;;;8.40;98.30;;;;;;5174837;23;20729;-80
2021/11/05 01:26:29;;;;;;;29.00;18.40;;;8.40;98.30;;;;;;5166430;22;20458;-81
2021/11/05 01:28:32;;;;;;;31.50;18.27;;;8.40;98.30;;;;;;5165623;23;20448;-81
2021/11/05 01:30:35;;;;;;;30.20;20.60;;;8.40;98.30;;;;;;5166219;22;20435;-81
2021/11/05 01:32:38;;;;;;;32.80;21.93;;;8.40;98.30;;;;;;5166983;22;20448;-81
2021/11/05 01:34:44;;;;;;;31.43;21.83;;;8.40;98.30;;;;;;5166780;23;20466;-81
2021/11/05 01:36:47;;;;;;;31.60;20.20;;;8.40;98.30;;;;;;5175019;22;20512;-81
2021/11/05 01:38:50;;;;;;;32.40;19.60;;;8.40;98.30;;;;;;5174811;22;20470;-81
2021/11/05 01:40:53;;;;;;;31.87;21.83;;;8.40;98.30;;;;;;5166195;22;20435;-81
2021/11/05 01:43:01;;;;;;;32.73;20.87;;;8.40;98.30;;;;;;5174265;22;20448;-82
2021/11/05 01:45:06;;;;;;;30.63;18.97;;;8.40;98.30;;;;;;5165611;23;20790;-81
2021/11/05 01:47:09;;;;;;;30.27;22.17;;;8.40;98.30;;;;;;5165452;22;20424;-81
2021/11/05 01:49:13;;;;;;;34.83;18.30;;;8.40;98.30;;;;;;5166593;23;20456;-82
2021/11/05 01:51:17;;;;;;;31.87;17.20;;;8.40;98.30;;;;;;5166530;22;20431;-81
2021/11/05 01:53:20;;;;;;;29.03;19.30;;;8.40;98.30;;;;;;5174639;22;20785;-81
2021/11/05 01:55:23;;;;;;;30.77;20.13;;;8.40;98.30;;;;;;5166910;22;20973;-82
2021/11/05 01:57:27;;;;;;;28.90;20.37;;;8.40;98.30;;;;;;5166863;22;20912;-81
2021/11/05 01:59:33;;;;;;;25.27;16.90;;;8.40;98.30;;;;;;5176322;22;20958;-81
2021/11/05 02:01:36;;;;;;;31.10;20.20;;;8.40;98.30;;;;;;5167163;22;20451;-81
2021/11/05 02:03:39;;;;;;;32.60;20.63;;;8.30;98.30;;;;;;5166705;22;20428;-82
2021/11/05 02:05:43;;;;;;;28.90;20.67;;;8.30;98.30;;;;;;5166500;23;20451;-81
2021/11/05 02:07:50;;;;;;;29.43;19.27;;;8.40;98.30;;;;;;5166556;22;20438;-81
2021/11/05 02:09:56;;;;;;;28.63;18.67;;;8.40;98.30;;;;;;5167083;23;20438;-81
2021/11/05 02:12:01;;;;;;;29.87;18.73;;;8.40;98.30;;;;;;5175258;22;20531;-81
2021/11/05 02:14:06;;;;;;;32.70;17.10;;;8.30;98.30;;;;;;5166609;22;20510;-81
2021/11/05 02:16:15;;;;;;;40.80;18.80;;;8.30;98.30;;;;;;5166638;22;20435;-81
2021/11/05 02:18:18;;;;;;;32.10;21.80;;;8.30;98.30;;;;;;5176153;22;20431;-81
2021/11/05 02:20:24;;;;;;;35.60;22.37;;;8.20;98.30;;;;;;5176607;22;20430;-81
2021/11/05 02:22:29;;;;;;;29.87;18.27;;;8.20;98.30;;;;;;5167952;22;20447;-81
2021/11/05 02:24:33;;;;;;;34.13;19.40;;;8.20;98.30;;;;;;5176426;23;20400;-81
2021/11/05 02:26:36;;;;;;;28.00;17.33;;;8.20;98.30;;;;;;5176667;23;20419;-81
2021/11/05 02:28:41;;;;;;;31.23;20.77;;;8.20;98.30;;;;;;5176133;22;20423;-82
2021/11/05 02:30:44;;;;;;;29.80;20.50;;;8.20;98.30;;;;;;5175069;22;20422;-81
2021/11/05 02:32:47;;;;;;;27.80;18.87;;;8.10;98.30;;;;;;5174582;22;20444;-82
2021/11/05 02:34:50;;;;;;;29.70;20.93;;;8.10;98.30;;;;;;5166929;23;20430;-81
2021/11/05 02:36:53;;;;;;;29.43;21.40;;;8.20;98.30;;;;;;5166472;22;20439;-81
2021/11/05 02:38:58;;;;;;;32.30;18.50;;;8.10;98.30;;;;;;5166675;22;20431;-81
2021/11/05 02:41:01;;;;;;;35.33;20.77;;;8.20;98.30;;;;;;5167058;22;20431;-81
2021/11/05 02:43:04;;;;;;;29.17;20.50;;;8.20;98.30;;;;;;5174929;22;20438;-81
2021/11/05 02:45:09;;;;;;;34.10;21.33;;;8.20;98.30;;;;;;5166575;22;20421;-82
2021/11/05 02:47:17;;;;;;;29.03;19.07;;;8.20;98.30;;;;;;5174479;23;20489;-82
2021/11/05 02:49:20;;;;;;;28.87;19.67;;;8.20;98.30;;;;;;5174682;23;20812;-81
2021/11/05 02:51:23;;;;;;;31.40;20.40;;;8.10;98.30;;;;;;5166042;22;20749;-82
2021/11/05 02:53:26;;;;;;;33.43;19.80;;;8.10;98.30;;;;;;5182711;22;20422;-82
2021/11/05 02:55:32;;;;;;;28.90;18.20;;;8.10;98.30;;;;;;5167090;23;20458;-81
2021/11/05 02:57:36;;;;;;;30.80;19.57;;;8.10;98.30;;;;;;5175107;22;20440;-81
2021/11/05 02:59:40;;;;;;;30.67;17.07;;;8.10;98.30;;;;;;5175207;22;20514;-81
2021/11/05 03:01:43;;;;;;;35.93;20.80;;;8.10;98.30;;;;;;5167044;22;20863;-81
2021/11/05 03:03:46;;;;;;;29.10;19.00;;;8.00;98.30;;;;;;5175850;22;20425;-81
2021/11/05 03:05:49;;;;;;;30.97;19.30;;;8.00;98.30;;;;;;5167266;23;20472;-81
2021/11/05 03:07:52;;;;;;;35.33;20.87;;;8.00;98.30;;;;;;5174598;22;20427;-82
2021/11/05 03:09:55;;;;;;;37.07;20.43;;;8.00;98.30;;;;;;5175621;22;20445;-81
2021/11/05 03:12:00;;;;;;;30.87;20.20;;;8.00;98.30;;;;;;5166322;22;20459;-81
2021/11/05 03:14:05;;;;;;;28.27;20.77;;;8.00;98.30;;;;;;5167074;23;20449;-81
2021/11/05 03:16:09;;;;;;;24.33;18.73;;;7.90;98.30;;;;;;5175184;22;20421;-81
2021/11/05 03:18:14;;;;;;;32.33;20.17;;;7.90;98.30;;;;;;5167508;22;20427;-81
2021/11/05 03:20:18;;;;;;;27.47;20.27;;;7.90;98.30;;;;;;5166316;23;20953;-81
2021/11/05 03:22:21;;;;;;;31.50;21.20;;;7.90;98.30;;;;;;5166473;22;20457;-81
2021/11/05 03:24:24;;;;;;;33.00;20.23;;;7.90;98.30;;;;;;5176028;22;20965;-81
2021/11/05 03:26:27;;;;;;;30.73;20.53;;;7.90;98.30;;;;;;5175563;22;20480;-81
2021/11/05 03:28:31;;;;;;;35.60;20.20;;;8.00;98.30;;;;;;5166484;22;20430;-81
2021/11/05 03:30:34;;;;;;;31.47;20.60;;;8.00;98.30;;;;;;5166216;22;21043;-81
2021/11/05 03:32:38;;;;;;;33.20;20.63;;;8.00;98.30;;;;;;5174787;22;20417;-80
2021/11/05 03:34:45;;;;;;;41.27;22.73;;;8.00;98.30;;;;;;5166905;23;20417;-80
2021/11/05 03:36:48;;;;;;;28.50;20.20;;;8.00;98.30;;;;;;5175039;22;20429;-81
2021/11/05 03:38:51;;;;;;;29.67;20.80;;;8.10;98.30;;;;;;5165856;22;20492;-82
2021/11/05 03:40:54;;;;;;;30.93;19.33;;;8.10;98.30;;;;;;5173943;22;20505;-82
2021/11/05 03:42:57;;;;;;;25.50;16.97;;;8.20;98.30;;;;;;5165313;22;20475;-82
2021/11/05 03:45:01;;;;;;;28.03;15.20;;;8.30;98.30;;;;;;5173993;22;20430;-82
2021/11/05 03:47:05;;;;;;;24.53;15.40;;;8.30;98.30;;;;;;5165807;22;20432;-82
2021/11/05 03:49:08;;;;;;;27.13;15.20;;;8.30;98.30;;;;;;5165979;22;20500;-82
2021/11/05 03:51:12;;;;;;;25.63;17.17;;;8.30;98.30;;;;;;5174322;22;20444;-81
2021/11/05 03:53:15;;;;;;;26.50;17.73;;;8.30;98.30;;;;;;5167597;22;20432;-82
2021/11/05 03:55:18;;;;;;;26.60;16.27;;;8.40;98.30;;;;;;5181434;22;20403;-82
2021/11/05 03:57:21;;;;;;;26.53;18.73;;;8.30;98.30;;;;;;5170872;23;20802;-82
2021/11/05 03:59:24;;;;;;;37.57;25.13;;;8.30;98.30;;;;;;5167852;22;20454;-82
2021/11/05 04:01:28;;;;;;;41.10;23.97;;;8.30;98.30;;;;;;5175521;22;20431;-82
2021/11/05 04:03:32;;;;;;;41.00;20.90;;;8.50;98.30;;;;;;5176917;22;20450;-82
2021/11/05 04:05:34;;;;;;;36.17;22.50;;;8.60;98.30;;;;;;5167015;22;20492;-82
2021/11/05 04:07:37;;;;;;;35.57;22.17;;;8.70;98.30;;;;;;5168954;23;20438;-82
2021/11/05 04:09:40;;;;;;;33.50;20.07;;;8.70;98.30;;;;;;5169776;22;20514;-81
2021/11/05 04:11:44;;;;;;;33.77;20.17;;;8.70;98.30;;;;;;5170264;22;20536;-81
2021/11/05 04:13:47;;;;;;;35.40;22.37;;;8.70;98.30;;;;;;5179675;22;20912;-81
2021/11/05 04:15:49;;;;;;;34.30;19.93;;;8.60;98.30;;;;;;5170652;23;20511;-81
2021/11/05 04:17:54;;;;;;;32.77;22.17;;;8.60;98.30;;;;;;5171039;22;20768;-81
2021/11/05 04:19:57;;;;;;;32.13;20.20;;;8.60;98.30;;;;;;5170870;22;20431;-81
2021/11/05 04:22:00;;;;;;;37.37;23.13;;;8.60;98.30;;;;;;5167263;22;20803;-82
2021/11/05 04:26:15;;;;;;;36.53;23.33;;;8.60;98.30;;;;;;5185634;22;20488;-84
